Terminal Aerodrome Forecast
Issued by NWS Jackson, MS

Home | Current Version | Previous Version | Text Only | Print | Product List | Glossary On
Versions: 1 2 3 4 5 6 7 8 9 10 11 12
000
FTUS44 KMEG 031732
TAFTUP
TAF
KTUP 031732Z 0318/0418 21008KT P6SM BKN200
     FM040000 19003KT P6SM SCT250
     FM041500 21009KT P6SM FEW250=

USA.gov is the U.S. government's official web portal to all federal, state and local government web resources and services.